sensor_id;sensor_type;location;lat;lon;timestamp;P1;durP1;ratioP1;P2;durP2;ratioP2
40150;SDS011;25866;52.420;10.640;2023-04-01T00:02:20;5.53;;;1.40;;
40150;SDS011;25866;52.420;10.640;2023-04-01T00:04:45;6.72;;;1.38;;
40150;SDS011;25866;52.420;10.640;2023-04-01T00:07:11;4.05;;;1.10;;
40150;SDS011;25866;52.420;10.640;2023-04-01T00:09:37;2.97;;;1.15;;
40150;SDS011;25866;52.420;10.640;2023-04-01T00:12:03;4.03;;;1.20;;
40150;SDS011;25866;52.420;10.640;2023-04-01T00:14:29;4.68;;;1.33;;
40150;SDS011;25866;52.420;10.640;2023-04-01T00:16:55;4.95;;;1.13;;
40150;SDS011;25866;52.420;10.640;2023-04-01T00:19:21;4.80;;;1.00;;
40150;SDS011;25866;52.420;10.640;2023-04-01T00:21:47;2.22;;;0.93;;
40150;SDS011;25866;52.420;10.640;2023-04-01T00:24:13;4.63;;;1.20;;
40150;SDS011;25866;52.420;10.640;2023-04-01T00:26:39;3.20;;;1.30;;
40150;SDS011;25866;52.420;10.640;2023-04-01T00:29:07;7.85;;;1.35;;
40150;SDS011;25866;52.420;10.640;2023-04-01T00:31:33;3.08;;;1.08;;
40150;SDS011;25866;52.420;10.640;2023-04-01T00:33:59;4.90;;;1.15;;
40150;SDS011;25866;52.420;10.640;2023-04-01T00:36:25;3.22;;;0.90;;
40150;SDS011;25866;52.420;10.640;2023-04-01T00:38:50;4.53;;;1.00;;
40150;SDS011;25866;52.420;10.640;2023-04-01T00:41:17;2.45;;;1.02;;
40150;SDS011;25866;52.420;10.640;2023-04-01T00:43:45;4.43;;;1.13;;
40150;SDS011;25866;52.420;10.640;2023-04-01T00:46:12;3.17;;;1.05;;
40150;SDS011;25866;52.420;10.640;2023-04-01T00:48:39;3.88;;;1.08;;
40150;SDS011;25866;52.420;10.640;2023-04-01T00:51:16;1.92;;;1.05;;
40150;SDS011;25866;52.420;10.640;2023-04-01T00:53:47;6.15;;;1.25;;
40150;SDS011;25866;52.420;10.640;2023-04-01T00:56:19;6.60;;;1.58;;
40150;SDS011;25866;52.420;10.640;2023-04-01T00:58:59;7.93;;;1.23;;
40150;SDS011;25866;52.420;10.640;2023-04-01T01:01:37;6.10;;;1.17;;
40150;SDS011;25866;52.420;10.640;2023-04-01T01:04:03;4.05;;;1.10;;
40150;SDS011;25866;52.420;10.640;2023-04-01T01:06:36;7.40;;;1.58;;
40150;SDS011;25866;52.420;10.640;2023-04-01T01:10:09;6.93;;;1.17;;
40150;SDS011;25866;52.420;10.640;2023-04-01T01:12:11;6.45;;;1.17;;
40150;SDS011;25866;52.420;10.640;2023-04-01T01:17:35;6.25;;;1.05;;
40150;SDS011;25866;52.420;10.640;2023-04-01T01:32:07;6.43;;;1.20;;
40150;SDS011;25866;52.420;10.640;2023-04-01T01:37:42;5.10;;;1.10;;
40150;SDS011;25866;52.420;10.640;2023-04-01T01:40:11;3.90;;;1.15;;
40150;SDS011;25866;52.420;10.640;2023-04-01T01:42:39;5.68;;;1.35;;
40150;SDS011;25866;52.420;10.640;2023-04-01T01:45:09;8.00;;;1.88;;
40150;SDS011;25866;52.420;10.640;2023-04-01T01:47:38;7.47;;;1.20;;
40150;SDS011;25866;52.420;10.640;2023-04-01T01:50:06;3.38;;;1.20;;
40150;SDS011;25866;52.420;10.640;2023-04-01T01:52:33;6.63;;;1.40;;
40150;SDS011;25866;52.420;10.640;2023-04-01T01:54:58;3.42;;;0.90;;
40150;SDS011;25866;52.420;10.640;2023-04-01T01:57:28;3.90;;;1.30;;
40150;SDS011;25866;52.420;10.640;2023-04-01T02:00:07;7.40;;;1.05;;
40150;SDS011;25866;52.420;10.640;2023-04-01T02:02:41;4.63;;;1.08;;
40150;SDS011;25866;52.420;10.640;2023-04-01T02:05:10;4.85;;;1.15;;
40150;SDS011;25866;52.420;10.640;2023-04-01T02:07:41;8.07;;;1.38;;
40150;SDS011;25866;52.420;10.640;2023-04-01T02:10:12;4.10;;;0.98;;
40150;SDS011;25866;52.420;10.640;2023-04-01T02:12:38;3.28;;;1.10;;
40150;SDS011;25866;52.420;10.640;2023-04-01T02:15:10;4.15;;;1.05;;
40150;SDS011;25866;52.420;10.640;2023-04-01T02:17:41;2.85;;;1.00;;
40150;SDS011;25866;52.420;10.640;2023-04-01T02:20:17;4.97;;;0.93;;
40150;SDS011;25866;52.420;10.640;2023-04-01T02:22:50;4.32;;;1.02;;
40150;SDS011;25866;52.420;10.640;2023-04-01T02:25:27;5.90;;;1.33;;
40150;SDS011;25866;52.420;10.640;2023-04-01T02:27:58;3.90;;;1.17;;
40150;SDS011;25866;52.420;10.640;2023-04-01T02:30:27;3.58;;;1.10;;
40150;SDS011;25866;52.420;10.640;2023-04-01T02:32:56;6.25;;;0.98;;
40150;SDS011;25866;52.420;10.640;2023-04-01T02:35:23;2.10;;;1.15;;
40150;SDS011;25866;52.420;10.640;2023-04-01T02:37:51;3.58;;;0.90;;
40150;SDS011;25866;52.420;10.640;2023-04-01T02:40:18;5.28;;;1.08;;
40150;SDS011;25866;52.420;10.640;2023-04-01T02:42:44;2.70;;;0.90;;
40150;SDS011;25866;52.420;10.640;2023-04-01T02:45:10;3.80;;;0.90;;
40150;SDS011;25866;52.420;10.640;2023-04-01T02:47:37;4.38;;;1.38;;
40150;SDS011;25866;52.420;10.640;2023-04-01T02:50:03;2.42;;;0.85;;
40150;SDS011;25866;52.420;10.640;2023-04-01T02:52:30;2.55;;;0.90;;
40150;SDS011;25866;52.420;10.640;2023-04-01T02:54:56;1.88;;;0.82;;
40150;SDS011;25866;52.420;10.640;2023-04-01T02:57:22;4.53;;;1.00;;
40150;SDS011;25866;52.420;10.640;2023-04-01T02:59:49;4.78;;;1.00;;
40150;SDS011;25866;52.420;10.640;2023-04-01T03:02:15;3.80;;;1.00;;
40150;SDS011;25866;52.420;10.640;2023-04-01T03:04:41;5.10;;;0.88;;
40150;SDS011;25866;52.420;10.640;2023-04-01T03:07:07;3.90;;;0.90;;
40150;SDS011;25866;52.420;10.640;2023-04-01T03:09:35;5.65;;;1.10;;
40150;SDS011;25866;52.420;10.640;2023-04-01T03:12:02;3.28;;;1.00;;
40150;SDS011;25866;52.420;10.640;2023-04-01T03:14:27;2.05;;;0.77;;
40150;SDS011;25866;52.420;10.640;2023-04-01T03:16:53;1.77;;;0.82;;
40150;SDS011;25866;52.420;10.640;2023-04-01T03:19:19;4.70;;;0.95;;
40150;SDS011;25866;52.420;10.640;2023-04-01T03:21:45;3.17;;;0.90;;
40150;SDS011;25866;52.420;10.640;2023-04-01T03:24:11;3.60;;;0.90;;
40150;SDS011;25866;52.420;10.640;2023-04-01T03:26:36;4.18;;;0.88;;
40150;SDS011;25866;52.420;10.640;2023-04-01T03:29:02;3.55;;;1.20;;
40150;SDS011;25866;52.420;10.640;2023-04-01T03:31:28;4.65;;;1.15;;
40150;SDS011;25866;52.420;10.640;2023-04-01T03:33:54;3.67;;;1.00;;
40150;SDS011;25866;52.420;10.640;2023-04-01T03:36:19;3.70;;;1.10;;
40150;SDS011;25866;52.420;10.640;2023-04-01T03:38:45;6.18;;;0.90;;
40150;SDS011;25866;52.420;10.640;2023-04-01T03:41:11;5.93;;;1.13;;
40150;SDS011;25866;52.420;10.640;2023-04-01T03:43:39;4.38;;;1.35;;
40150;SDS011;25866;52.420;10.640;2023-04-01T03:46:05;4.50;;;1.20;;
40150;SDS011;25866;52.420;10.640;2023-04-01T03:48:31;3.10;;;1.08;;
40150;SDS011;25866;52.420;10.640;2023-04-01T03:50:57;3.33;;;1.00;;
40150;SDS011;25866;52.420;10.640;2023-04-01T03:53:23;5.35;;;1.00;;
40150;SDS011;25866;52.420;10.640;2023-04-01T03:55:48;3.05;;;0.70;;
40150;SDS011;25866;52.420;10.640;2023-04-01T03:58:17;2.35;;;1.02;;
40150;SDS011;25866;52.420;10.640;2023-04-01T04:00:42;2.80;;;1.10;;
40150;SDS011;25866;52.420;10.640;2023-04-01T04:03:08;5.57;;;1.05;;
40150;SDS011;25866;52.420;10.640;2023-04-01T04:05:34;2.50;;;0.95;;
40150;SDS011;25866;52.420;10.640;2023-04-01T04:08:00;7.15;;;1.25;;
40150;SDS011;25866;52.420;10.640;2023-04-01T04:10:25;4.03;;;0.90;;
40150;SDS011;25866;52.420;10.640;2023-04-01T04:12:51;5.68;;;1.08;;
40150;SDS011;25866;52.420;10.640;2023-04-01T04:15:17;2.33;;;0.93;;
40150;SDS011;25866;52.420;10.640;2023-04-01T04:17:44;1.30;;;0.77;;
40150;SDS011;25866;52.420;10.640;2023-04-01T04:20:10;4.57;;;1.02;;
40150;SDS011;25866;52.420;10.640;2023-04-01T04:22:36;3.55;;;1.15;;
40150;SDS011;25866;52.420;10.640;2023-04-01T04:25:02;3.78;;;0.82;;
40150;SDS011;25866;52.420;10.640;2023-04-01T04:27:28;6.45;;;1.10;;
40150;SDS011;25866;52.420;10.640;2023-04-01T04:29:53;3.03;;;0.77;;
40150;SDS011;25866;52.420;10.640;2023-04-01T04:32:19;5.07;;;1.05;;
40150;SDS011;25866;52.420;10.640;2023-04-01T04:34:45;3.05;;;0.80;;
40150;SDS011;25866;52.420;10.640;2023-04-01T04:37:11;1.77;;;0.93;;
40150;SDS011;25866;52.420;10.640;2023-04-01T04:39:36;4.50;;;1.10;;
40150;SDS011;25866;52.420;10.640;2023-04-01T04:42:02;2.67;;;1.15;;
40150;SDS011;25866;52.420;10.640;2023-04-01T04:44:28;2.25;;;0.95;;
40150;SDS011;25866;52.420;10.640;2023-04-01T04:46:53;4.75;;;0.90;;
40150;SDS011;25866;52.420;10.640;2023-04-01T04:49:20;4.35;;;1.00;;
40150;SDS011;25866;52.420;10.640;2023-04-01T04:51:46;3.15;;;0.93;;
40150;SDS011;25866;52.420;10.640;2023-04-01T04:54:11;3.58;;;1.00;;
40150;SDS011;25866;52.420;10.640;2023-04-01T04:56:37;5.05;;;1.00;;
40150;SDS011;25866;52.420;10.640;2023-04-01T04:59:04;2.45;;;1.00;;
40150;SDS011;25866;52.420;10.640;2023-04-01T05:01:31;1.73;;;0.87;;
40150;SDS011;25866;52.420;10.640;2023-04-01T05:03:58;3.00;;;1.02;;
40150;SDS011;25866;52.420;10.640;2023-04-01T05:06:24;6.50;;;1.25;;
40150;SDS011;25866;52.420;10.640;2023-04-01T05:11:21;4.32;;;1.00;;
40150;SDS011;25866;52.420;10.640;2023-04-01T05:13:47;5.60;;;1.20;;
40150;SDS011;25866;52.420;10.640;2023-04-01T05:16:17;2.47;;;1.00;;
40150;SDS011;25866;52.420;10.640;2023-04-01T05:18:44;4.55;;;1.35;;
40150;SDS011;25866;52.420;10.640;2023-04-01T05:21:12;3.78;;;1.17;;
40150;SDS011;25866;52.420;10.640;2023-04-01T05:23:47;4.07;;;1.30;;
40150;SDS011;25866;52.420;10.640;2023-04-01T05:26:14;5.80;;;1.08;;
40150;SDS011;25866;52.420;10.640;2023-04-01T05:28:47;2.10;;;0.82;;
40150;SDS011;25866;52.420;10.640;2023-04-01T05:31:12;1.80;;;0.85;;
40150;SDS011;25866;52.420;10.640;2023-04-01T05:33:38;3.30;;;1.13;;
40150;SDS011;25866;52.420;10.640;2023-04-01T05:38:38;4.57;;;1.20;;
40150;SDS011;25866;52.420;10.640;2023-04-01T05:41:04;4.17;;;1.00;;
40150;SDS011;25866;52.420;10.640;2023-04-01T05:43:30;4.60;;;1.10;;
40150;SDS011;25866;52.420;10.640;2023-04-01T05:45:56;2.53;;;0.90;;
40150;SDS011;25866;52.420;10.640;2023-04-01T05:48:22;8.60;;;1.25;;
40150;SDS011;25866;52.420;10.640;2023-04-01T05:50:50;3.85;;;1.02;;
40150;SDS011;25866;52.420;10.640;2023-04-01T05:53:16;3.15;;;0.93;;
40150;SDS011;25866;52.420;10.640;2023-04-01T05:55:42;1.58;;;0.70;;
40150;SDS011;25866;52.420;10.640;2023-04-01T05:58:07;3.30;;;0.80;;
40150;SDS011;25866;52.420;10.640;2023-04-01T06:00:33;1.83;;;0.90;;
40150;SDS011;25866;52.420;10.640;2023-04-01T06:02:59;4.30;;;0.90;;
40150;SDS011;25866;52.420;10.640;2023-04-01T06:05:26;3.70;;;1.00;;
40150;SDS011;25866;52.420;10.640;2023-04-01T06:08:01;3.25;;;1.00;;
40150;SDS011;25866;52.420;10.640;2023-04-01T06:10:48;1.83;;;0.82;;
40150;SDS011;25866;52.420;10.640;2023-04-01T06:19:05;3.08;;;0.85;;
40150;SDS011;25866;52.420;10.640;2023-04-01T06:24:57;3.33;;;0.85;;
40150;SDS011;25866;52.420;10.640;2023-04-01T06:30:32;3.58;;;0.95;;
40150;SDS011;25866;52.420;10.640;2023-04-01T06:33:05;5.03;;;1.25;;
40150;SDS011;25866;52.420;10.640;2023-04-01T06:35:54;1.90;;;0.80;;
40150;SDS011;25866;52.420;10.640;2023-04-01T06:38:42;1.25;;;0.75;;
40150;SDS011;25866;52.420;10.640;2023-04-01T06:55:36;2.33;;;0.90;;
40150;SDS011;25866;52.420;10.640;2023-04-01T06:58:03;1.92;;;0.90;;
40150;SDS011;25866;52.420;10.640;2023-04-01T07:00:35;1.77;;;0.80;;
40150;SDS011;25866;52.420;10.640;2023-04-01T07:05:58;2.63;;;1.17;;
40150;SDS011;25866;52.420;10.640;2023-04-01T07:08:30;3.75;;;0.85;;
40150;SDS011;25866;52.420;10.640;2023-04-01T07:11:02;3.33;;;0.80;;
40150;SDS011;25866;52.420;10.640;2023-04-01T07:13:34;4.18;;;0.90;;
40150;SDS011;25866;52.420;10.640;2023-04-01T07:18:56;1.25;;;0.52;;
40150;SDS011;25866;52.420;10.640;2023-04-01T07:21:32;2.45;;;0.73;;
40150;SDS011;25866;52.420;10.640;2023-04-01T07:24:06;3.40;;;0.90;;
40150;SDS011;25866;52.420;10.640;2023-04-01T07:26:40;1.63;;;0.60;;
40150;SDS011;25866;52.420;10.640;2023-04-01T07:29:09;1.95;;;0.68;;
40150;SDS011;25866;52.420;10.640;2023-04-01T07:37:16;1.00;;;0.50;;
40150;SDS011;25866;52.420;10.640;2023-04-01T07:40:09;3.60;;;0.90;;
40150;SDS011;25866;52.420;10.640;2023-04-01T07:45:30;4.15;;;0.90;;
40150;SDS011;25866;52.420;10.640;2023-04-01T07:48:26;1.85;;;0.70;;
40150;SDS011;25866;52.420;10.640;2023-04-01T07:53:46;1.58;;;0.60;;
40150;SDS011;25866;52.420;10.640;2023-04-01T08:01:45;1.75;;;0.60;;
40150;SDS011;25866;52.420;10.640;2023-04-01T08:14:52;1.85;;;0.50;;
40150;SDS011;25866;52.420;10.640;2023-04-01T08:17:20;1.63;;;0.57;;
40150;SDS011;25866;52.420;10.640;2023-04-01T08:22:42;1.05;;;0.50;;
40150;SDS011;25866;52.420;10.640;2023-04-01T08:25:16;0.95;;;0.47;;
40150;SDS011;25866;52.420;10.640;2023-04-01T08:28:30;1.45;;;0.60;;
40150;SDS011;25866;52.420;10.640;2023-04-01T08:30:51;1.27;;;0.52;;
40150;SDS011;25866;52.420;10.640;2023-04-01T08:33:20;2.33;;;0.70;;
40150;SDS011;25866;52.420;10.640;2023-04-01T08:35:56;1.05;;;0.50;;
40150;SDS011;25866;52.420;10.640;2023-04-01T08:40:57;2.20;;;0.75;;
40150;SDS011;25866;52.420;10.640;2023-04-01T08:48:30;1.05;;;0.50;;
40150;SDS011;25866;52.420;10.640;2023-04-01T08:56:59;2.15;;;0.75;;
40150;SDS011;25866;52.420;10.640;2023-04-01T09:13:34;2.42;;;0.55;;
40150;SDS011;25866;52.420;10.640;2023-04-01T09:24:41;1.25;;;0.50;;
40150;SDS011;25866;52.420;10.640;2023-04-01T09:29:59;1.23;;;0.50;;
40150;SDS011;25866;52.420;10.640;2023-04-01T09:35:48;1.23;;;0.55;;
40150;SDS011;25866;52.420;10.640;2023-04-01T09:41:20;0.85;;;0.50;;
40150;SDS011;25866;52.420;10.640;2023-04-01T09:44:00;2.22;;;0.55;;
40150;SDS011;25866;52.420;10.640;2023-04-01T09:55:04;1.05;;;0.50;;
40150;SDS011;25866;52.420;10.640;2023-04-01T10:14:15;1.73;;;0.43;;
40150;SDS011;25866;52.420;10.640;2023-04-01T10:28:10;3.10;;;0.63;;
40150;SDS011;25866;52.420;10.640;2023-04-01T10:31:08;1.15;;;0.50;;
40150;SDS011;25866;52.420;10.640;2023-04-01T11:01:57;2.47;;;1.10;;
40150;SDS011;25866;52.420;10.640;2023-04-01T11:04:57;1.00;;;0.70;;
40150;SDS011;25866;52.420;10.640;2023-04-01T11:19:40;0.50;;;0.50;;
40150;SDS011;25866;52.420;10.640;2023-04-01T11:44:30;1.20;;;0.60;;
40150;SDS011;25866;52.420;10.640;2023-04-01T12:11:45;1.65;;;0.70;;
40150;SDS011;25866;52.420;10.640;2023-04-01T12:23:02;1.27;;;0.77;;
40150;SDS011;25866;52.420;10.640;2023-04-01T12:28:49;1.95;;;0.70;;
40150;SDS011;25866;52.420;10.640;2023-04-01T12:31:52;1.13;;;0.70;;
40150;SDS011;25866;52.420;10.640;2023-04-01T12:34:40;1.38;;;0.90;;
40150;SDS011;25866;52.420;10.640;2023-04-01T12:42:59;1.00;;;0.52;;
40150;SDS011;25866;52.420;10.640;2023-04-01T12:53:38;0.52;;;0.40;;
40150;SDS011;25866;52.420;10.640;2023-04-01T12:56:21;0.95;;;0.60;;
40150;SDS011;25866;52.420;10.640;2023-04-01T13:07:22;0.93;;;0.50;;
40150;SDS011;25866;52.420;10.640;2023-04-01T13:18:07;1.77;;;0.70;;
40150;SDS011;25866;52.420;10.640;2023-04-01T13:21:05;0.70;;;0.70;;
40150;SDS011;25866;52.420;10.640;2023-04-01T13:23:49;0.70;;;0.65;;
40150;SDS011;25866;52.420;10.640;2023-04-01T13:26:43;1.08;;;0.93;;
40150;SDS011;25866;52.420;10.640;2023-04-01T13:29:31;1.20;;;0.93;;
40150;SDS011;25866;52.420;10.640;2023-04-01T13:32:10;0.60;;;0.60;;
40150;SDS011;25866;52.420;10.640;2023-04-01T13:43:22;0.60;;;0.60;;
40150;SDS011;25866;52.420;10.640;2023-04-01T13:46:39;0.68;;;0.40;;
40150;SDS011;25866;52.420;10.640;2023-04-01T13:48:50;0.73;;;0.60;;
40150;SDS011;25866;52.420;10.640;2023-04-01T14:08:17;3.00;;;2.20;;
40150;SDS011;25866;52.420;10.640;2023-04-01T14:10:54;1.55;;;1.02;;
40150;SDS011;25866;52.420;10.640;2023-04-01T14:21:55;1.42;;;0.95;;
40150;SDS011;25866;52.420;10.640;2023-04-01T14:24:45;0.70;;;0.60;;
40150;SDS011;25866;52.420;10.640;2023-04-01T14:27:41;1.08;;;0.68;;
40150;SDS011;25866;52.420;10.640;2023-04-01T14:33:22;31.83;;;1.30;;
40150;SDS011;25866;52.420;10.640;2023-04-01T14:41:57;1.10;;;1.00;;
40150;SDS011;25866;52.420;10.640;2023-04-01T14:50:12;1.47;;;1.10;;
40150;SDS011;25866;52.420;10.640;2023-04-01T15:06:00;1.43;;;1.10;;
40150;SDS011;25866;52.420;10.640;2023-04-01T15:08:52;1.67;;;1.00;;
40150;SDS011;25866;52.420;10.640;2023-04-01T15:20:10;1.10;;;0.90;;
40150;SDS011;25866;52.420;10.640;2023-04-01T15:25:55;1.10;;;1.00;;
40150;SDS011;25866;52.420;10.640;2023-04-01T15:44:43;1.03;;;0.83;;
40150;SDS011;25866;52.420;10.640;2023-04-01T15:55:27;1.37;;;0.67;;
40150;SDS011;25866;52.420;10.640;2023-04-01T15:58:05;0.90;;;0.70;;
40150;SDS011;25866;52.420;10.640;2023-04-01T16:01:04;1.47;;;0.70;;
40150;SDS011;25866;52.420;10.640;2023-04-01T16:06:44;0.60;;;0.50;;
40150;SDS011;25866;52.420;10.640;2023-04-01T16:09:34;0.90;;;0.80;;
40150;SDS011;25866;52.420;10.640;2023-04-01T16:12:36;1.63;;;0.93;;
40150;SDS011;25866;52.420;10.640;2023-04-01T16:18:27;1.20;;;0.80;;
40150;SDS011;25866;52.420;10.640;2023-04-01T16:24:51;2.30;;;0.80;;
40150;SDS011;25866;52.420;10.640;2023-04-01T16:30:03;0.60;;;0.53;;
40150;SDS011;25866;52.420;10.640;2023-04-01T16:33:04;0.70;;;0.70;;
40150;SDS011;25866;52.420;10.640;2023-04-01T16:43:28;1.03;;;0.60;;
40150;SDS011;25866;52.420;10.640;2023-04-01T16:51:41;1.23;;;0.80;;
40150;SDS011;25866;52.420;10.640;2023-04-01T17:02:31;2.57;;;0.90;;
40150;SDS011;25866;52.420;10.640;2023-04-01T17:05:11;0.60;;;0.60;;
40150;SDS011;25866;52.420;10.640;2023-04-01T17:07:43;0.93;;;0.60;;
40150;SDS011;25866;52.420;10.640;2023-04-01T17:16:11;1.17;;;0.70;;
40150;SDS011;25866;52.420;10.640;2023-04-01T17:19:14;0.50;;;0.50;;
40150;SDS011;25866;52.420;10.640;2023-04-01T17:21:56;1.83;;;0.90;;
40150;SDS011;25866;52.420;10.640;2023-04-01T17:28:31;1.00;;;0.73;;
40150;SDS011;25866;52.420;10.640;2023-04-01T17:30:35;0.80;;;0.70;;
40150;SDS011;25866;52.420;10.640;2023-04-01T17:35:40;3.00;;;0.90;;
40150;SDS011;25866;52.420;10.640;2023-04-01T17:38:37;0.87;;;0.80;;
40150;SDS011;25866;52.420;10.640;2023-04-01T17:58:56;3.07;;;2.17;;
40150;SDS011;25866;52.420;10.640;2023-04-01T18:04:36;3.63;;;1.70;;
40150;SDS011;25866;52.420;10.640;2023-04-01T18:10:03;3.40;;;1.80;;
40150;SDS011;25866;52.420;10.640;2023-04-01T18:21:46;3.30;;;1.60;;
40150;SDS011;25866;52.420;10.640;2023-04-01T18:24:28;2.33;;;1.60;;
40150;SDS011;25866;52.420;10.640;2023-04-01T18:27:04;1.63;;;1.23;;
40150;SDS011;25866;52.420;10.640;2023-04-01T18:29:40;3.10;;;1.60;;
40150;SDS011;25866;52.420;10.640;2023-04-01T18:40:41;2.13;;;1.57;;
40150;SDS011;25866;52.420;10.640;2023-04-01T18:51:50;3.50;;;1.80;;
40150;SDS011;25866;52.420;10.640;2023-04-01T18:54:27;3.17;;;1.70;;
40150;SDS011;25866;52.420;10.640;2023-04-01T18:59:39;4.00;;;1.50;;
40150;SDS011;25866;52.420;10.640;2023-04-01T19:05:00;2.67;;;1.70;;
40150;SDS011;25866;52.420;10.640;2023-04-01T19:13:04;3.13;;;2.10;;
40150;SDS011;25866;52.420;10.640;2023-04-01T19:18:31;5.90;;;2.87;;
40150;SDS011;25866;52.420;10.640;2023-04-01T19:26:42;5.53;;;2.93;;
40150;SDS011;25866;52.420;10.640;2023-04-01T19:34:58;5.63;;;3.30;;
40150;SDS011;25866;52.420;10.640;2023-04-01T19:37:33;5.63;;;3.37;;
40150;SDS011;25866;52.420;10.640;2023-04-01T19:46:16;4.93;;;2.57;;
40150;SDS011;25866;52.420;10.640;2023-04-01T19:49:00;4.93;;;3.07;;
40150;SDS011;25866;52.420;10.640;2023-04-01T19:51:48;4.83;;;3.03;;
40150;SDS011;25866;52.420;10.640;2023-04-01T19:57:15;5.17;;;2.90;;
40150;SDS011;25866;52.420;10.640;2023-04-01T20:09:00;3.33;;;2.47;;
40150;SDS011;25866;52.420;10.640;2023-04-01T20:11:30;5.00;;;2.77;;
40150;SDS011;25866;52.420;10.640;2023-04-01T20:14:27;6.47;;;3.77;;
40150;SDS011;25866;52.420;10.640;2023-04-01T20:19:39;3.37;;;2.00;;
40150;SDS011;25866;52.420;10.640;2023-04-01T20:24:50;5.73;;;2.47;;
40150;SDS011;25866;52.420;10.640;2023-04-01T20:27:19;3.37;;;2.27;;
40150;SDS011;25866;52.420;10.640;2023-04-01T20:32:40;5.60;;;2.87;;
40150;SDS011;25866;52.420;10.640;2023-04-01T20:35:20;3.87;;;2.50;;
40150;SDS011;25866;52.420;10.640;2023-04-01T20:40:57;4.13;;;2.73;;
40150;SDS011;25866;52.420;10.640;2023-04-01T20:46:42;3.00;;;2.40;;
40150;SDS011;25866;52.420;10.640;2023-04-01T20:49:30;5.77;;;3.10;;
40150;SDS011;25866;52.420;10.640;2023-04-01T20:54:58;5.17;;;2.70;;
40150;SDS011;25866;52.420;10.640;2023-04-01T20:57:38;8.53;;;2.87;;
40150;SDS011;25866;52.420;10.640;2023-04-01T21:06:15;4.07;;;2.73;;
40150;SDS011;25866;52.420;10.640;2023-04-01T21:14:41;5.30;;;2.93;;
40150;SDS011;25866;52.420;10.640;2023-04-01T21:17:22;7.13;;;3.20;;
40150;SDS011;25866;52.420;10.640;2023-04-01T21:28:34;5.70;;;2.60;;
40150;SDS011;25866;52.420;10.640;2023-04-01T21:50:55;8.87;;;3.87;;
40150;SDS011;25866;52.420;10.640;2023-04-01T21:59:46;4.83;;;3.27;;
40150;SDS011;25866;52.420;10.640;2023-04-01T22:02:32;5.97;;;3.00;;
40150;SDS011;25866;52.420;10.640;2023-04-01T22:05:24;8.27;;;3.10;;
40150;SDS011;25866;52.420;10.640;2023-04-01T22:10:59;13.70;;;3.90;;
40150;SDS011;25866;52.420;10.640;2023-04-01T22:13:32;6.50;;;3.90;;
40150;SDS011;25866;52.420;10.640;2023-04-01T22:16:39;9.03;;;4.13;;
40150;SDS011;25866;52.420;10.640;2023-04-01T22:19:39;6.70;;;3.57;;
40150;SDS011;25866;52.420;10.640;2023-04-01T22:25:57;5.87;;;3.43;;
40150;SDS011;25866;52.420;10.640;2023-04-01T22:28:22;8.30;;;3.37;;
40150;SDS011;25866;52.420;10.640;2023-04-01T22:30:55;10.53;;;3.67;;
40150;SDS011;25866;52.420;10.640;2023-04-01T22:39:07;7.83;;;3.63;;
40150;SDS011;25866;52.420;10.640;2023-04-01T22:42:12;7.27;;;3.60;;
40150;SDS011;25866;52.420;10.640;2023-04-01T22:50:58;5.07;;;3.00;;
40150;SDS011;25866;52.420;10.640;2023-04-01T22:56:37;6.83;;;3.30;;
40150;SDS011;25866;52.420;10.640;2023-04-01T22:59:09;7.83;;;3.03;;
40150;SDS011;25866;52.420;10.640;2023-04-01T23:02:16;7.47;;;3.20;;
40150;SDS011;25866;52.420;10.640;2023-04-01T23:04:39;8.67;;;3.63;;
40150;SDS011;25866;52.420;10.640;2023-04-01T23:07:23;6.13;;;2.97;;
40150;SDS011;25866;52.420;10.640;2023-04-01T23:10:57;6.23;;;2.10;;
40150;SDS011;25866;52.420;10.640;2023-04-01T23:13:20;5.70;;;2.50;;
40150;SDS011;25866;52.420;10.640;2023-04-01T23:15:52;6.70;;;2.50;;
40150;SDS011;25866;52.420;10.640;2023-04-01T23:21:05;4.20;;;1.97;;
40150;SDS011;25866;52.420;10.640;2023-04-01T23:24:05;9.63;;;2.40;;
40150;SDS011;25866;52.420;10.640;2023-04-01T23:26:37;6.50;;;2.40;;
40150;SDS011;25866;52.420;10.640;2023-04-01T23:29:26;8.17;;;2.40;;
40150;SDS011;25866;52.420;10.640;2023-04-01T23:31:56;7.40;;;2.40;;
40150;SDS011;25866;52.420;10.640;2023-04-01T23:34:34;5.57;;;2.30;;
40150;SDS011;25866;52.420;10.640;2023-04-01T23:37:11;5.67;;;2.30;;
40150;SDS011;25866;52.420;10.640;2023-04-01T23:39:39;5.87;;;2.40;;
40150;SDS011;25866;52.420;10.640;2023-04-01T23:42:25;7.47;;;2.10;;
40150;SDS011;25866;52.420;10.640;2023-04-01T23:45:05;4.17;;;2.20;;
40150;SDS011;25866;52.420;10.640;2023-04-01T23:47:38;7.00;;;2.17;;
40150;SDS011;25866;52.420;10.640;2023-04-01T23:50:18;5.70;;;2.07;;
40150;SDS011;25866;52.420;10.640;2023-04-01T23:52:54;7.43;;;2.50;;
40150;SDS011;25866;52.420;10.640;2023-04-01T23:55:26;7.50;;;2.40;;
